Time;durP1;ratioP1;P1;durP2;ratioP2;P2;SDS_P1;SDS_P2;PMS_P1;PMS_P2;Temp;Humidity;BMP_temperature;BMP_pressure;BME280_temperature;BME280_humidity;BME280_pressure;Samples;Min_cycle;Max_cycle;Signal;HPM_P1;HPM_P2
2022/03/14 00:00:48;;;;;;;;;;;6.70;99.90;;;;;;6128104;23;19999;-88
2022/03/14 00:03:15;;;;;;;;;;;6.70;99.90;;;;;;6127714;23;19921;-87
2022/03/14 00:05:42;;;;;;;;;;;6.70;99.90;;;;;;6127715;23;20446;-88
2022/03/14 00:08:09;;;;;;;;;;;6.60;99.90;;;;;;6127837;23;20345;-88
2022/03/14 00:10:36;;;;;;;;;;;6.70;99.90;;;;;;6127799;23;19968;-88
2022/03/14 00:13:07;;;;;;;;;;;6.80;99.90;;;;;;6127350;23;19925;-86
2022/03/14 00:15:33;;;;;;;;;;;6.60;99.90;;;;;;6127775;23;20329;-87
2022/03/14 00:18:02;;;;;;;;;;;7.20;99.90;;;;;;6127632;23;19945;-88
2022/03/14 00:20:28;;;;;;;;;;;6.90;99.90;;;;;;6127611;23;19921;-88
2022/03/14 00:22:58;;;;;;;;;;;6.70;99.90;;;;;;6127713;23;19972;-89
2022/03/14 00:25:28;;;;;;;;;;;6.60;99.90;;;;;;6127686;23;19967;-88
2022/03/14 00:27:55;;;;;;;;;;;6.50;99.90;;;;;;6127611;23;19944;-88
2022/03/14 00:30:23;;;;;;;;;;;5.70;99.90;;;;;;6127711;23;19924;-87
2022/03/14 00:32:50;;;;;;;;;;;6.50;99.90;;;;;;6128004;23;20342;-88
2022/03/14 00:35:17;;;;;;;;;;;6.40;99.90;;;;;;6127936;23;19921;-88
2022/03/14 00:37:43;;;;;;;;;;;6.40;99.90;;;;;;6127375;23;19921;-88
2022/03/14 00:40:11;;;;;;;;;;;6.60;99.90;;;;;;6127238;23;19929;-89
2022/03/14 00:42:38;;;;;;;;;;;6.70;99.90;;;;;;6127336;23;19928;-88
2022/03/14 00:45:06;;;;;;;;;;;8.00;99.90;;;;;;6127090;23;19928;-88
2022/03/14 00:47:34;;;;;;;;;;;6.90;99.90;;;;;;6127660;23;19921;-89
2022/03/14 00:50:01;;;;;;;;;;;6.60;99.90;;;;;;6127313;23;20404;-88
2022/03/14 00:52:27;;;;;;;;;;;6.00;99.90;;;;;;6127736;23;20264;-88
2022/03/14 00:54:54;;;;;;;;;;;6.20;99.90;;;;;;6127318;23;19921;-88
2022/03/14 00:57:21;;;;;;;;;;;6.60;99.90;;;;;;6127464;23;19971;-85
2022/03/14 00:59:48;;;;;;;;;;;7.60;99.90;;;;;;6127753;23;20324;-87
2022/03/14 01:02:15;;;;;;;;;;;6.40;99.90;;;;;;6127017;23;20383;-87
2022/03/14 01:04:43;;;;;;;;;;;6.40;99.90;;;;;;6127516;23;19925;-87
2022/03/14 01:07:10;;;;;;;;;;;6.30;99.90;;;;;;6127059;23;19924;-88
2022/03/14 01:09:37;;;;;;;;;;;6.20;99.90;;;;;;6127440;23;19921;-88
2022/03/14 01:12:04;;;;;;;;;;;6.50;99.90;;;;;;6126941;23;20352;-86
2022/03/14 01:14:30;;;;;;;;;;;6.20;99.90;;;;;;6127224;23;19975;-88
2022/03/14 01:16:57;;;;;;;;;;;6.60;99.90;;;;;;6127075;23;19968;-88
2022/03/14 01:19:24;;;;;;;;;;;6.30;99.90;;;;;;6126947;23;19976;-87
2022/03/14 01:21:52;;;;;;;;;;;6.30;99.90;;;;;;6127330;23;19925;-88
2022/03/14 01:24:19;;;;;;;;;;;6.20;99.90;;;;;;6126556;23;19928;-88
2022/03/14 01:26:46;;;;;;;;;;;6.10;99.90;;;;;;6127303;23;19928;-88
2022/03/14 01:29:14;;;;;;;;;;;6.20;99.90;;;;;;6126859;23;19921;-87
2022/03/14 01:31:41;;;;;;;;;;;6.30;99.90;;;;;;6127026;23;19968;-88
2022/03/14 01:34:08;;;;;;;;;;;6.00;99.90;;;;;;6127298;23;19971;-87
2022/03/14 01:36:35;;;;;;;;;;;6.00;99.90;;;;;;6127101;23;19943;-88
2022/03/14 01:39:04;;;;;;;;;;;5.90;99.90;;;;;;6127421;23;19929;-88
2022/03/14 01:41:31;;;;;;;;;;;5.80;99.90;;;;;;6126971;23;19963;-88
2022/03/14 01:43:59;;;;;;;;;;;5.80;99.90;;;;;;6127526;23;20003;-86
2022/03/14 01:46:26;;;;;;;;;;;5.80;99.90;;;;;;6126719;23;19925;-88
2022/03/14 01:48:53;;;;;;;;;;;5.80;99.90;;;;;;6127252;23;19921;-87
2022/03/14 01:51:22;;;;;;;;;;;4.90;99.90;;;;;;6126813;23;19928;-88
2022/03/14 01:53:49;;;;;;;;;;;5.70;99.90;;;;;;6127173;23;20289;-87
2022/03/14 01:56:17;;;;;;;;;;;5.70;99.90;;;;;;6126925;23;19929;-87
2022/03/14 01:58:45;;;;;;;;;;;5.80;99.90;;;;;;6127037;23;19925;-85
2022/03/14 02:01:12;;;;;;;;;;;5.60;99.90;;;;;;6127038;23;20004;-87
2022/03/14 02:03:40;;;;;;;;;;;5.90;99.90;;;;;;6126001;23;19931;-87
2022/03/14 02:06:08;;;;;;;;;;;5.50;99.90;;;;;;6126640;23;19921;-87
2022/03/14 02:08:35;;;;;;;;;;;5.90;99.90;;;;;;6126378;23;19928;-86
2022/03/14 02:11:02;;;;;;;;;;;5.60;99.90;;;;;;6126782;23;19947;-86
2022/03/14 02:13:30;;;;;;;;;;;5.60;99.90;;;;;;6127156;23;19920;-87
2022/03/14 02:15:57;;;;;;;;;;;6.00;99.90;;;;;;6126883;23;19968;-85
2022/03/14 02:18:24;;;;;;;;;;;5.70;99.90;;;;;;6126458;23;19967;-87
2022/03/14 02:20:52;;;;;;;;;;;6.10;99.90;;;;;;6126782;23;19925;-87
2022/03/14 02:23:19;;;;;;;;;;;5.80;99.90;;;;;;6126866;23;19921;-87
2022/03/14 02:25:49;;;;;;;;;;;4.50;99.90;;;;;;6126638;23;20277;-87
2022/03/14 02:28:18;;;;;;;;;;;5.70;99.90;;;;;;6126710;23;19925;-87
2022/03/14 02:30:44;;;;;;;;;;;5.80;99.90;;;;;;6126493;23;19927;-87
2022/03/14 02:33:11;;;;;;;;;;;5.70;99.90;;;;;;6126582;23;19921;-87
2022/03/14 02:35:39;;;;;;;;;;;5.60;99.90;;;;;;6126456;23;19921;-86
2022/03/14 02:38:11;;;;;;;;;;;6.00;99.90;;;;;;6126874;23;19921;-87
2022/03/14 02:40:39;;;;;;;;;;;5.60;99.90;;;;;;6127066;23;20222;-87
2022/03/14 02:43:05;;;;;;;;;;;6.50;99.90;;;;;;6127182;23;19984;-87
2022/03/14 02:45:32;;;;;;;;;;;5.60;99.90;;;;;;6126518;23;19945;-87
2022/03/14 02:47:59;;;;;;;;;;;5.60;99.90;;;;;;6126840;23;19976;-86
2022/03/14 02:50:26;;;;;;;;;;;5.30;99.90;;;;;;6126437;23;20324;-87
2022/03/14 02:52:53;;;;;;;;;;;5.40;99.90;;;;;;6127969;23;19925;-87
2022/03/14 02:55:23;;;;;;;;;;;5.70;99.90;;;;;;6128753;23;19921;-87
2022/03/14 02:57:49;;;;;;;;;;;5.40;99.90;;;;;;6128220;23;19945;-87
2022/03/14 03:00:16;;;;;;;;;;;5.50;99.90;;;;;;6128497;23;19925;-86
2022/03/14 03:02:43;;;;;;;;;;;5.70;99.90;;;;;;6128402;23;20344;-87
2022/03/14 03:05:10;;;;;;;;;;;5.40;99.90;;;;;;6128392;23;20407;-87
2022/03/14 03:07:37;;;;;;;;;;;5.90;99.90;;;;;;6128153;23;19925;-87
2022/03/14 03:10:06;;;;;;;;;;;5.70;99.90;;;;;;6128745;23;19920;-88
2022/03/14 03:12:37;;;;;;;;;;;5.80;99.90;;;;;;6128251;23;19921;-88
2022/03/14 03:15:04;;;;;;;;;;;6.00;99.90;;;;;;6128236;23;19921;-88
2022/03/14 03:17:31;;;;;;;;;;;4.80;99.90;;;;;;6128727;23;19920;-86
2022/03/14 03:19:58;;;;;;;;;;;5.50;99.90;;;;;;6128576;23;19921;-88
2022/03/14 03:22:26;;;;;;;;;;;5.80;99.90;;;;;;6128193;23;19927;-87
2022/03/14 03:24:53;;;;;;;;;;;5.90;99.90;;;;;;6128304;23;19925;-87
2022/03/14 03:27:20;;;;;;;;;;;8.20;99.90;;;;;;6128673;23;19942;-88
2022/03/14 03:29:48;;;;;;;;;;;5.40;99.90;;;;;;6128347;23;19925;-87
2022/03/14 03:32:15;;;;;;;;;;;5.60;99.90;;;;;;6128364;23;19944;-87
2022/03/14 03:34:42;;;;;;;;;;;4.50;99.90;;;;;;6127974;23;19928;-88
2022/03/14 03:37:09;;;;;;;;;;;5.40;99.90;;;;;;6128258;23;19920;-87
2022/03/14 03:39:36;;;;;;;;;;;5.30;99.90;;;;;;6128484;23;19921;-86
2022/03/14 03:42:03;;;;;;;;;;;5.40;99.90;;;;;;6127885;23;19945;-87
2022/03/14 03:44:31;;;;;;;;;;;5.40;99.90;;;;;;6128154;23;19921;-87
2022/03/14 03:46:59;;;;;;;;;;;5.60;99.90;;;;;;6128289;23;19924;-86
2022/03/14 03:49:26;;;;;;;;;;;5.50;99.90;;;;;;6127838;23;19977;-88
2022/03/14 03:51:53;;;;;;;;;;;6.10;99.90;;;;;;6127802;23;19921;-88
2022/03/14 03:54:20;;;;;;;;;;;5.40;99.90;;;;;;6127898;23;19921;-87
2022/03/14 03:56:47;;;;;;;;;;;4.90;99.90;;;;;;6127838;23;19921;-87
2022/03/14 03:59:14;;;;;;;;;;;5.20;99.90;;;;;;6127554;23;19971;-87
2022/03/14 04:01:41;;;;;;;;;;;5.50;99.90;;;;;;6127429;23;20301;-86
2022/03/14 04:04:09;;;;;;;;;;;5.40;99.90;;;;;;6126965;23;19927;-86
2022/03/14 04:06:36;;;;;;;;;;;6.00;99.90;;;;;;6127523;23;19925;-87
2022/03/14 04:09:04;;;;;;;;;;;5.70;99.90;;;;;;6127498;23;20396;-86
2022/03/14 04:11:30;;;;;;;;;;;5.20;99.90;;;;;;6127359;23;19924;-87
2022/03/14 04:13:58;;;;;;;;;;;5.20;99.90;;;;;;6128015;23;19921;-86
2022/03/14 04:16:26;;;;;;;;;;;5.60;99.90;;;;;;6127488;23;20281;-86
2022/03/14 04:18:53;;;;;;;;;;;5.10;99.90;;;;;;6127917;23;19921;-87
2022/03/14 04:21:21;;;;;;;;;;;5.20;99.90;;;;;;6127383;23;20241;-88
2022/03/14 04:23:48;;;;;;;;;;;5.40;99.90;;;;;;6127096;23;20388;-87
2022/03/14 04:26:15;;;;;;;;;;;5.10;99.90;;;;;;6127759;23;20000;-87
2022/03/14 04:28:42;;;;;;;;;;;5.10;99.90;;;;;;6127399;23;19952;-87
2022/03/14 04:31:10;;;;;;;;;;;3.40;99.90;;;;;;6127080;23;20238;-87
2022/03/14 04:33:37;;;;;;;;;;;4.90;99.90;;;;;;6127252;23;19921;-87
2022/03/14 04:36:04;;;;;;;;;;;5.00;99.90;;;;;;6126783;23;19984;-87
2022/03/14 04:38:33;;;;;;;;;;;4.80;99.90;;;;;;6126896;23;19944;-86
2022/03/14 04:40:59;;;;;;;;;;;4.90;99.90;;;;;;6126699;23;20217;-87
2022/03/14 04:43:26;;;;;;;;;;;4.70;99.90;;;;;;6127407;23;19928;-86
2022/03/14 04:45:53;;;;;;;;;;;4.90;99.90;;;;;;6127604;23;19921;-87
2022/03/14 04:48:20;;;;;;;;;;;4.80;99.90;;;;;;6127724;23;19930;-86
2022/03/14 04:50:47;;;;;;;;;;;4.80;99.90;;;;;;6127270;23;19921;-87
2022/03/14 04:53:14;;;;;;;;;;;5.20;99.90;;;;;;6126620;23;19927;-87
2022/03/14 04:55:42;;;;;;;;;;;5.00;99.90;;;;;;6127697;23;19949;-87
2022/03/14 04:58:12;;;;;;;;;;;4.80;99.90;;;;;;6127348;23;20329;-86
2022/03/14 05:00:39;;;;;;;;;;;4.90;99.90;;;;;;6127324;23;19925;-86
2022/03/14 05:03:07;;;;;;;;;;;4.70;99.90;;;;;;6127030;23;20321;-88
2022/03/14 05:05:34;;;;;;;;;;;4.70;99.90;;;;;;6126899;23;19921;-87
2022/03/14 05:08:01;;;;;;;;;;;5.20;99.90;;;;;;6127381;23;19991;-88
2022/03/14 05:10:27;;;;;;;;;;;4.70;99.90;;;;;;6127246;23;19920;-87
2022/03/14 05:12:56;;;;;;;;;;;4.80;99.90;;;;;;6127104;23;19983;-87
2022/03/14 05:15:22;;;;;;;;;;;5.30;99.90;;;;;;6126961;23;20249;-87
2022/03/14 05:17:50;;;;;;;;;;;5.20;99.90;;;;;;6126891;23;20325;-87
2022/03/14 05:20:17;;;;;;;;;;;4.90;99.90;;;;;;6127578;23;19928;-87
2022/03/14 05:22:44;;;;;;;;;;;4.90;99.90;;;;;;6127086;23;20230;-88
2022/03/14 05:25:11;;;;;;;;;;;5.00;99.90;;;;;;6126922;23;19921;-87
2022/03/14 05:27:41;;;;;;;;;;;4.50;99.90;;;;;;6127383;23;19957;-86
2022/03/14 05:30:09;;;;;;;;;;;4.50;99.90;;;;;;6126834;23;19924;-86
2022/03/14 05:32:36;;;;;;;;;;;3.70;99.90;;;;;;6127221;23;20281;-87
2022/03/14 05:35:03;;;;;;;;;;;5.20;99.90;;;;;;6127298;23;19936;-86
2022/03/14 05:37:30;;;;;;;;;;;4.40;99.90;;;;;;6127015;23;19923;-86
2022/03/14 05:39:58;;;;;;;;;;;4.30;99.90;;;;;;6126280;23;21999;-85
2022/03/14 05:42:26;;;;;;;;;;;5.10;99.90;;;;;;6127019;23;19924;-86
2022/03/14 05:44:53;;;;;;;;;;;4.20;99.90;;;;;;6127289;23;19921;-87
2022/03/14 05:47:21;;;;;;;;;;;4.20;99.90;;;;;;6127118;23;20395;-86
2022/03/14 05:49:48;;;;;;;;;;;4.40;99.90;;;;;;6126825;23;19924;-87
2022/03/14 05:52:15;;;;;;;;;;;4.60;99.90;;;;;;6127141;23;19925;-87
2022/03/14 05:54:41;;;;;;;;;;;4.70;99.90;;;;;;6129045;23;19992;-87
2022/03/14 05:57:08;;;;;;;;;;;4.50;99.90;;;;;;6126542;23;19921;-87
2022/03/14 05:59:35;;;;;;;;;;;4.50;99.90;;;;;;6127001;23;19925;-87
2022/03/14 06:02:02;;;;;;;;;;;4.40;99.90;;;;;;6126642;23;19921;-87
2022/03/14 06:04:30;;;;;;;;;;;4.50;99.90;;;;;;6126840;23;20229;-87
2022/03/14 06:06:59;;;;;;;;;;;4.50;99.90;;;;;;6127124;23;19921;-87
2022/03/14 06:09:28;;;;;;;;;;;2.50;99.90;;;;;;6126700;23;20000;-88
2022/03/14 06:11:55;;;;;;;;;;;4.80;99.90;;;;;;6126719;23;19925;-86
2022/03/14 06:14:22;;;;;;;;;;;4.40;99.90;;;;;;6126922;23;19921;-87
2022/03/14 06:16:48;;;;;;;;;;;4.50;99.90;;;;;;6127246;23;20301;-89
2022/03/14 06:19:15;;;;;;;;;;;4.70;99.90;;;;;;6126863;23;20027;-87
2022/03/14 06:21:44;;;;;;;;;;;4.90;99.90;;;;;;6126916;23;19977;-88
2022/03/14 06:24:10;;;;;;;;;;;4.80;99.90;;;;;;6126629;23;19932;-88
2022/03/14 06:26:37;;;;;;;;;;;4.60;99.90;;;;;;6127727;23;19925;-88
2022/03/14 06:29:04;;;;;;;;;;;4.50;99.90;;;;;;6128723;23;19999;-87
2022/03/14 06:31:31;;;;;;;;;;;3.60;99.90;;;;;;6128552;23;19925;-88
2022/03/14 06:33:58;;;;;;;;;;;4.10;99.90;;;;;;6128996;23;20028;-87
2022/03/14 06:36:26;;;;;;;;;;;4.60;99.90;;;;;;6128790;23;20320;-87
2022/03/14 06:38:55;;;;;;;;;;;4.00;99.90;;;;;;6128520;23;19921;-87
2022/03/14 06:41:22;;;;;;;;;;;4.30;99.90;;;;;;6128299;23;19951;-87
2022/03/14 06:43:52;;;;;;;;;;;4.60;99.90;;;;;;6128073;23;19968;-87
2022/03/14 06:46:19;;;;;;;;;;;3.70;99.90;;;;;;6128944;23;19980;-88
2022/03/14 06:48:46;;;;;;;;;;;4.30;99.90;;;;;;6127876;23;19924;-86
2022/03/14 06:51:13;;;;;;;;;;;4.40;99.90;;;;;;6128200;23;19975;-89
2022/03/14 06:53:40;;;;;;;;;;;4.40;99.90;;;;;;6127837;23;19928;-88
2022/03/14 06:56:08;;;;;;;;;;;4.60;99.90;;;;;;6127764;23;19921;-87
2022/03/14 06:58:35;;;;;;;;;;;4.30;99.90;;;;;;6128083;23;19932;-88
2022/03/14 07:01:02;;;;;;;;;;;4.20;99.90;;;;;;6127937;23;20238;-87
2022/03/14 07:03:29;;;;;;;;;;;5.10;99.90;;;;;;6127994;23;19928;-87
2022/03/14 07:05:56;;;;;;;;;;;4.70;99.90;;;;;;6128083;23;19980;-88
2022/03/14 07:08:22;;;;;;;;;;;4.40;99.90;;;;;;6127873;23;20003;-87
2022/03/14 07:10:49;;;;;;;;;;;4.20;99.90;;;;;;6128557;23;19968;-87
2022/03/14 07:13:17;;;;;;;;;;;4.70;99.90;;;;;;6128869;23;20246;-88
2022/03/14 07:15:44;;;;;;;;;;;4.60;99.90;;;;;;6128663;23;19921;-88
2022/03/14 07:18:11;;;;;;;;;;;4.60;99.90;;;;;;6128405;23;20251;-88
2022/03/14 07:20:38;;;;;;;;;;;4.60;99.90;;;;;;6128852;23;19943;-87
2022/03/14 07:23:06;;;;;;;;;;;4.50;99.90;;;;;;6128220;23;19921;-87
2022/03/14 07:25:34;;;;;;;;;;;4.90;99.90;;;;;;6128324;23;19921;-87
2022/03/14 07:28:02;;;;;;;;;;;5.10;99.90;;;;;;6128557;23;19925;-87
2022/03/14 07:30:30;;;;;;;;;;;4.60;99.90;;;;;;6128830;23;19921;-88
2022/03/14 07:32:57;;;;;;;;;;;4.80;99.90;;;;;;6129338;23;19988;-88
2022/03/14 07:35:26;;;;;;;;;;;5.70;99.90;;;;;;6128975;23;19920;-87
2022/03/14 07:37:53;;;;;;;;;;;4.90;99.90;;;;;;6128134;23;19921;-88
2022/03/14 07:40:20;;;;;;;;;;;5.70;99.90;;;;;;6128328;23;20248;-87
2022/03/14 07:42:48;;;;;;;;;;;5.40;99.90;;;;;;6128216;23;19921;-87
2022/03/14 07:45:15;;;;;;;;;;;5.20;99.90;;;;;;6128340;23;19925;-88
2022/03/14 07:47:44;;;;;;;;;;;5.10;99.90;;;;;;6128565;23;20251;-87
2022/03/14 07:50:13;;;;;;;;;;;5.50;99.90;;;;;;6129470;23;20246;-88
2022/03/14 07:52:39;;;;;;;;;;;4.30;99.90;;;;;;6130987;23;20003;-86
2022/03/14 07:55:07;;;;;;;;;;;5.70;99.90;;;;;;6128614;23;19925;-87
2022/03/14 07:57:34;;;;;;;;;;;5.60;99.90;;;;;;6130803;23;19925;-87
2022/03/14 08:00:01;;;;;;;;;;;5.70;99.90;;;;;;6127164;23;19921;-87
2022/03/14 08:02:27;;;;;;;;;;;5.90;99.90;;;;;;6127999;23;19921;-88
2022/03/14 08:04:56;;;;;;;;;;;6.10;99.90;;;;;;6128480;23;19920;-89
2022/03/14 08:07:23;;;;;;;;;;;6.20;99.90;;;;;;6128769;23;19921;-87
2022/03/14 08:09:50;;;;;;;;;;;6.40;99.90;;;;;;6128427;23;19921;-88
2022/03/14 08:12:17;;;;;;;;;;;5.90;99.90;;;;;;6130185;23;19932;-90
2022/03/14 08:14:43;;;;;;;;;;;6.00;99.90;;;;;;6130261;23;20269;-87
2022/03/14 08:17:10;;;;;;;;;;;6.20;99.90;;;;;;6130117;23;20062;-88
2022/03/14 08:19:37;;;;;;;;;;;6.20;99.90;;;;;;6129550;23;19927;-86
2022/03/14 08:22:06;;;;;;;;;;;6.30;99.90;;;;;;6128928;23;19921;-87
2022/03/14 08:24:33;;;;;;;;;;;6.40;99.90;;;;;;6128076;23;20252;-87
2022/03/14 08:27:01;;;;;;;;;;;6.40;99.90;;;;;;6131415;23;19929;-86
2022/03/14 08:29:28;;;;;;;;;;;7.00;99.90;;;;;;6127590;23;19921;-88
2022/03/14 08:31:55;;;;;;;;;;;7.00;99.90;;;;;;6128281;23;19921;-87
2022/03/14 08:34:22;;;;;;;;;;;6.60;99.90;;;;;;6127612;23;19921;-87
2022/03/14 08:36:49;;;;;;;;;;;6.60;99.90;;;;;;6128186;23;20281;-88
2022/03/14 08:39:17;;;;;;;;;;;6.70;99.90;;;;;;6127460;23;20295;-88
2022/03/14 08:41:48;;;;;;;;;;;6.70;99.90;;;;;;6128302;23;19925;-87
2022/03/14 08:44:15;;;;;;;;;;;8.20;99.90;;;;;;6138983;23;19984;-85
2022/03/14 08:46:42;;;;;;;;;;;5.60;99.90;;;;;;6129956;23;19976;-88
2022/03/14 08:49:09;;;;;;;;;;;6.90;99.90;;;;;;6130077;23;19956;-85
2022/03/14 08:51:37;;;;;;;;;;;7.40;99.90;;;;;;6127352;23;19928;-85
2022/03/14 08:54:04;;;;;;;;;;;7.20;99.90;;;;;;6128306;23;19921;-89
2022/03/14 08:56:37;;;;;;;;;;;7.70;99.90;;;;;;6127056;23;19921;-89
2022/03/14 08:59:04;;;;;;;;;;;7.40;99.90;;;;;;6128180;23;19945;-91
2022/03/14 09:01:32;;;;;;;;;;;7.20;99.90;;;;;;6126912;23;20247;-87
2022/03/14 09:03:59;;;;;;;;;;;6.20;99.90;;;;;;6127073;23;19965;-87
2022/03/14 09:06:28;;;;;;;;;;;7.90;99.90;;;;;;6128248;23;20003;-87
2022/03/14 09:08:55;;;;;;;;;;;8.00;99.90;;;;;;6126389;23;19921;-88
2022/03/14 09:11:23;;;;;;;;;;;7.70;99.90;;;;;;6126729;23;19921;-87
2022/03/14 09:13:51;;;;;;;;;;;7.80;99.90;;;;;;6127951;23;20379;-88
2022/03/14 09:16:19;;;;;;;;;;;7.00;99.90;;;;;;6126100;23;19974;-87
2022/03/14 09:18:46;;;;;;;;;;;7.90;99.90;;;;;;6127619;23;20249;-87
2022/03/14 09:21:14;;;;;;;;;;;8.30;99.90;;;;;;6125604;23;19921;-88
2022/03/14 09:23:41;;;;;;;;;;;8.40;99.90;;;;;;6126297;23;19948;-87
2022/03/14 09:26:09;;;;;;;;;;;8.00;99.90;;;;;;6126329;23;19972;-87
2022/03/14 09:28:39;;;;;;;;;;;8.10;99.90;;;;;;6126362;23;19947;-88
2022/03/14 09:31:08;;;;;;;;;;;8.20;99.90;;;;;;6125391;23;20003;-88
2022/03/14 09:33:35;;;;;;;;;;;8.60;99.90;;;;;;6125698;23;19968;-89
2022/03/14 09:36:02;;;;;;;;;;;8.10;99.90;;;;;;6125618;23;20340;-87
2022/03/14 09:38:29;;;;;;;;;;;8.50;99.90;;;;;;6126335;23;19947;-86
2022/03/14 09:40:56;;;;;;;;;;;8.50;99.90;;;;;;6126040;23;19928;-89
2022/03/14 09:43:25;;;;;;;;;;;8.20;99.90;;;;;;6125805;23;19967;-88
2022/03/14 09:45:53;;;;;;;;;;;8.70;99.90;;;;;;6127694;23;20325;-88
2022/03/14 09:48:21;;;;;;;;;;;8.80;99.90;;;;;;6128227;23;19921;-88
2022/03/14 09:50:48;;;;;;;;;;;9.10;99.90;;;;;;6126229;23;19927;-87
2022/03/14 09:53:19;;;;;;;;;;;8.80;99.90;;;;;;6127540;23;19925;-89
2022/03/14 09:55:47;;;;;;;;;;;9.30;99.90;;;;;;6129318;23;19920;-88
2022/03/14 09:58:15;;;;;;;;;;;6.50;99.90;;;;;;6126816;23;19992;-89
2022/03/14 10:00:42;;;;;;;;;;;8.40;99.90;;;;;;6126778;23;19927;-89
2022/03/14 10:03:09;;;;;;;;;;;9.40;99.90;;;;;;6128355;23;19928;-89
2022/03/14 10:05:37;;;;;;;;;;;9.20;99.90;;;;;;6129885;23;19979;-89
2022/03/14 10:08:04;;;;;;;;;;;9.30;99.90;;;;;;6128674;23;19928;-89
2022/03/14 10:10:31;;;;;;;;;;;9.20;99.90;;;;;;6130965;23;20027;-89
2022/03/14 10:12:58;;;;;;;;;;;9.70;99.90;;;;;;6127849;23;19924;-88
2022/03/14 10:15:25;;;;;;;;;;;9.40;99.90;;;;;;6129106;23;19921;-89
2022/03/14 10:17:53;;;;;;;;;;;9.00;99.90;;;;;;6128812;23;19921;-88
2022/03/14 10:20:21;;;;;;;;;;;9.40;99.90;;;;;;6130145;23;19946;-89
2022/03/14 10:22:50;;;;;;;;;;;9.20;99.90;;;;;;6117667;23;20674;-90
2022/03/14 10:25:18;;;;;;;;;;;9.20;99.90;;;;;;6130247;23;19944;-89
2022/03/14 10:27:49;;;;;;;;;;;9.20;99.90;;;;;;6087725;23;19920;-89
2022/03/14 10:30:23;;;;;;;;;;;9.50;99.90;;;;;;6129588;23;20399;-90
2022/03/14 10:32:50;;;;;;;;;;;9.60;99.90;;;;;;6128134;23;19959;-91
2022/03/14 10:35:20;;;;;;;;;;;10.10;99.90;;;;;;6131042;23;19928;-90
2022/03/14 10:37:58;;;;;;;;;;;9.80;99.90;;;;;;6130412;23;19920;-89
2022/03/14 10:40:32;;;;;;;;;;;9.90;99.90;;;;;;6130392;23;20325;-89
2022/03/14 10:43:05;;;;;;;;;;;10.20;99.90;;;;;;6131608;23;19921;-90
2022/03/14 10:45:32;;;;;;;;;;;10.00;99.90;;;;;;6132812;23;19928;-89
2022/03/14 10:48:02;;;;;;;;;;;10.50;99.90;;;;;;6133178;23;19921;-89
2022/03/14 10:50:31;;;;;;;;;;;10.00;99.90;;;;;;6131574;23;20256;-89
2022/03/14 10:53:05;;;;;;;;;;;10.00;99.90;;;;;;6132669;23;19939;-88
2022/03/14 10:55:35;;;;;;;;;;;10.10;99.90;;;;;;6128279;23;19932;-89
2022/03/14 10:58:08;;;;;;;;;;;10.20;99.90;;;;;;6129129;23;20022;-90
2022/03/14 11:00:44;;;;;;;;;;;10.40;99.90;;;;;;6132626;23;19944;-88
2022/03/14 11:03:11;;;;;;;;;;;10.70;99.90;;;;;;6135846;23;19925;-88
2022/03/14 11:05:45;;;;;;;;;;;10.40;99.90;;;;;;6130920;23;19987;-91
2022/03/14 11:08:30;;;;;;;;;;;10.40;99.90;;;;;;6130195;23;19980;-89
2022/03/14 11:10:58;;;;;;;;;;;11.00;99.90;;;;;;6130185;23;19925;-90
2022/03/14 11:13:25;;;;;;;;;;;10.40;99.90;;;;;;6128704;23;19921;-88
2022/03/14 11:15:53;;;;;;;;;;;10.40;99.90;;;;;;6127766;23;19943;-89
2022/03/14 11:18:20;;;;;;;;;;;10.60;99.90;;;;;;6128565;23;20004;-89
2022/03/14 11:20:48;;;;;;;;;;;10.60;99.90;;;;;;6127652;23;19925;-88
2022/03/14 11:23:15;;;;;;;;;;;10.70;99.90;;;;;;6127901;23;19936;-91
2022/03/14 11:25:46;;;;;;;;;;;11.00;99.90;;;;;;6128874;23;19965;-88
2022/03/14 11:28:16;;;;;;;;;;;11.00;99.90;;;;;;6128726;23;19921;-89
2022/03/14 11:30:49;;;;;;;;;;;11.10;99.90;;;;;;6126939;23;19959;-88
2022/03/14 11:33:16;;;;;;;;;;;11.10;99.90;;;;;;6127344;23;19987;-89
2022/03/14 11:35:44;;;;;;;;;;;11.40;99.90;;;;;;6127034;23;19980;-88
2022/03/14 11:38:11;;;;;;;;;;;11.00;99.90;;;;;;6129724;23;20400;-88
2022/03/14 11:40:40;;;;;;;;;;;11.50;99.90;;;;;;6128437;23;19940;-89
2022/03/14 11:43:09;;;;;;;;;;;11.30;99.90;;;;;;6128050;23;20356;-89
2022/03/14 11:45:37;;;;;;;;;;;11.80;99.90;;;;;;6129868;23;20218;-89
2022/03/14 11:48:05;;;;;;;;;;;11.30;99.90;;;;;;6127877;23;19935;-89
2022/03/14 11:50:41;;;;;;;;;;;11.00;99.90;;;;;;6128399;23;20352;-88
2022/03/14 11:55:55;;;;;;;;;;;11.30;99.90;;;;;;6124562;23;19931;-90
2022/03/14 11:58:30;;;;;;;;;;;11.40;99.90;;;;;;6129547;23;19931;-89
2022/03/14 12:00:57;;;;;;;;;;;11.20;99.90;;;;;;6127530;23;19996;-88
2022/03/14 12:03:41;;;;;;;;;;;11.90;99.90;;;;;;6126851;23;19924;-87
2022/03/14 12:06:09;;;;;;;;;;;9.50;98.80;;;;;;6126110;23;19956;-88
2022/03/14 12:09:00;;;;;;;;;;;11.50;99.90;;;;;;6128085;23;19925;-89
2022/03/14 12:11:37;;;;;;;;;;;10.90;98.30;;;;;;6127860;23;19948;-88
2022/03/14 12:14:05;;;;;;;;;;;11.90;97.60;;;;;;6122163;23;19927;-89
2022/03/14 12:16:37;;;;;;;;;;;12.00;97.50;;;;;;6127680;23;19921;-90
2022/03/14 12:19:19;;;;;;;;;;;11.80;97.30;;;;;;6118159;23;19949;-88
2022/03/14 12:21:48;;;;;;;;;;;11.90;96.10;;;;;;6126179;23;20337;-86
2022/03/14 12:24:18;;;;;;;;;;;11.80;96.80;;;;;;6126708;23;19925;-88
2022/03/14 12:26:45;;;;;;;;;;;11.70;96.20;;;;;;6126493;23;19925;-87
2022/03/14 12:29:30;;;;;;;;;;;11.70;96.30;;;;;;6127395;23;19921;-89
2022/03/14 12:32:11;;;;;;;;;;;11.90;96.20;;;;;;6127192;23;19921;-89
2022/03/14 12:34:40;;;;;;;;;;;11.60;95.70;;;;;;6126251;23;19967;-89
2022/03/14 12:37:24;;;;;;;;;;;12.40;95.80;;;;;;6129171;23;19920;-88
2022/03/14 12:39:50;;;;;;;;;;;12.80;95.80;;;;;;6127165;23;19968;-88
2022/03/14 12:42:23;;;;;;;;;;;12.40;96.20;;;;;;6127224;23;19928;-88
2022/03/14 12:45:09;;;;;;;;;;;12.80;94.60;;;;;;6128975;23;19945;-87
2022/03/14 12:47:40;;;;;;;;;;;12.30;94.90;;;;;;6127470;23;20264;-88
2022/03/14 12:50:11;;;;;;;;;;;12.10;95.30;;;;;;6126618;23;19928;-87
2022/03/14 12:53:00;;;;;;;;;;;12.10;94.90;;;;;;6128177;23;19925;-88
2022/03/14 12:55:26;;;;;;;;;;;12.30;94.60;;;;;;6129631;23;19928;-89
2022/03/14 12:57:54;;;;;;;;;;;12.30;95.30;;;;;;6129612;23;19959;-89
2022/03/14 13:00:21;;;;;;;;;;;12.60;95.40;;;;;;6129241;23;19983;-88
2022/03/14 13:02:50;;;;;;;;;;;12.50;95.10;;;;;;6132929;23;19949;-90
2022/03/14 13:05:20;;;;;;;;;;;12.60;94.90;;;;;;6131452;23;19984;-89
2022/03/14 13:08:00;;;;;;;;;;;12.60;93.70;;;;;;6128236;23;20526;-88
2022/03/14 13:10:41;;;;;;;;;;;12.60;93.90;;;;;;6127693;23;20003;-90
2022/03/14 13:13:09;;;;;;;;;;;12.20;93.80;;;;;;6128387;23;19933;-90
2022/03/14 13:15:37;;;;;;;;;;;12.40;94.60;;;;;;6128558;23;19927;-89
2022/03/14 13:18:15;;;;;;;;;;;12.70;94.50;;;;;;6135134;23;20241;-90
2022/03/14 13:20:44;;;;;;;;;;;12.40;94.60;;;;;;6131269;23;19982;-90
2022/03/14 13:23:17;;;;;;;;;;;12.60;94.60;;;;;;6130492;23;19929;-89
2022/03/14 13:25:46;;;;;;;;;;;12.30;93.60;;;;;;6129832;23;20314;-88
2022/03/14 13:28:25;;;;;;;;;;;12.30;93.70;;;;;;6132669;23;19928;-90
2022/03/14 13:30:55;;;;;;;;;;;12.40;94.60;;;;;;6131860;23;19928;-91
2022/03/14 13:33:29;;;;;;;;;;;12.30;95.20;;;;;;6130494;23;19992;-91
2022/03/14 13:35:58;;;;;;;;;;;12.40;95.00;;;;;;6127978;23;19925;-92
2022/03/14 13:38:32;;;;;;;;;;;12.40;93.90;;;;;;6127896;23;19927;-90
2022/03/14 13:41:01;;;;;;;;;;;12.40;93.30;;;;;;6127649;23;19921;-91
2022/03/14 13:43:28;;;;;;;;;;;11.90;93.80;;;;;;6128805;23;20001;-90
2022/03/14 13:46:11;;;;;;;;;;;12.30;93.80;;;;;;6127728;23;20356;-91
2022/03/14 13:48:38;;;;;;;;;;;12.40;93.10;;;;;;6125880;23;19925;-91
2022/03/14 13:51:10;;;;;;;;;;;10.90;93.00;;;;;;6126978;23;19928;-89
2022/03/14 13:53:44;;;;;;;;;;;12.60;92.30;;;;;;6130566;23;19921;-89
2022/03/14 13:56:11;;;;;;;;;;;12.50;92.40;;;;;;6130411;23;20356;-90
2022/03/14 13:58:39;;;;;;;;;;;12.40;93.30;;;;;;6130568;23;19921;-89
2022/03/14 14:01:07;;;;;;;;;;;12.30;92.20;;;;;;6130789;23;19936;-89
2022/03/14 14:03:36;;;;;;;;;;;12.40;92.50;;;;;;6128624;23;19947;-90
2022/03/14 14:06:15;;;;;;;;;;;12.10;92.00;;;;;;6132220;23;19925;-89
2022/03/14 14:08:42;;;;;;;;;;;12.20;91.10;;;;;;6132206;23;19925;-89
2022/03/14 14:11:09;;;;;;;;;;;11.90;91.10;;;;;;6128361;23;20325;-89
2022/03/14 14:13:46;;;;;;;;;;;12.70;91.10;;;;;;6129194;23;19944;-89
2022/03/14 14:16:16;;;;;;;;;;;12.20;89.40;;;;;;6130268;23;19957;-89
2022/03/14 14:18:43;;;;;;;;;;;12.10;89.90;;;;;;6126073;23;19925;-88
2022/03/14 14:21:18;;;;;;;;;;;12.30;90.70;;;;;;6132374;23;19929;-90
2022/03/14 14:23:47;;;;;;;;;;;12.10;88.50;;;;;;6131093;23;19921;-89
2022/03/14 14:26:14;;;;;;;;;;;12.10;90.10;;;;;;6128635;23;19922;-93
2022/03/14 14:28:41;;;;;;;;;;;12.60;90.00;;;;;;6133165;23;20233;-90
2022/03/14 14:31:23;;;;;;;;;;;12.20;91.00;;;;;;6106662;23;19928;-90
2022/03/14 14:33:50;;;;;;;;;;;12.60;89.60;;;;;;6133210;23;19925;-89
2022/03/14 14:36:23;;;;;;;;;;;12.90;91.20;;;;;;6129397;23;19921;-91